Time;durP1;ratioP1;P1;durP2;ratioP2;P2;SDS_P1;SDS_P2;PMS_P1;PMS_P2;Temp;Humidity;BMP_temperature;BMP_pressure;BME280_temperature;BME280_humidity;BME280_pressure;Samples;Min_cycle;Max_cycle;Signal;HPM_P1;HPM_P2
2023/05/31 00:00:16;;;;;;;5.10;3.20;;;15.90;99.90;;;;;;5048692;28;20189;-53
2023/05/31 00:02:42;;;;;;;6.43;3.07;;;15.80;99.90;;;;;;5043932;28;20219;-56
2023/05/31 00:05:08;;;;;;;3.10;2.80;;;15.80;99.90;;;;;;5044128;28;20542;-54
2023/05/31 00:07:33;;;;;;;3.80;2.23;;;15.80;99.90;;;;;;5047022;28;20188;-54
2023/05/31 00:09:59;;;;;;;3.40;3.10;;;15.80;99.90;;;;;;5044665;28;20513;-53
2023/05/31 00:12:25;;;;;;;6.03;3.10;;;15.80;99.90;;;;;;5048104;28;20708;-53
2023/05/31 00:14:50;;;;;;;5.30;2.93;;;15.80;99.90;;;;;;5053126;28;20257;-54
2023/05/31 00:17:16;;;;;;;4.13;2.37;;;15.70;99.90;;;;;;5043776;28;20593;-55
2023/05/31 00:19:41;;;;;;;5.30;3.80;;;15.60;99.90;;;;;;5049903;28;20173;-54
2023/05/31 00:22:07;;;;;;;3.37;2.63;;;15.50;99.90;;;;;;5046277;28;20263;-52
2023/05/31 00:24:33;;;;;;;3.33;2.60;;;15.50;99.90;;;;;;5049016;28;20905;-54
2023/05/31 00:26:58;;;;;;;3.10;2.47;;;15.40;99.90;;;;;;5053077;28;20190;-53
2023/05/31 00:29:25;;;;;;;2.73;2.53;;;15.40;99.90;;;;;;5056894;28;20646;-53
2023/05/31 00:31:51;;;;;;;6.00;4.40;;;15.30;99.90;;;;;;5053076;28;20473;-54
2023/05/31 00:34:17;;;;;;;4.17;2.63;;;15.30;99.90;;;;;;5052305;28;20963;-54
2023/05/31 00:36:42;;;;;;;3.50;2.60;;;15.20;99.90;;;;;;5052628;28;20199;-56
2023/05/31 00:39:08;;;;;;;4.50;2.30;;;15.10;99.90;;;;;;5051460;28;20219;-54
2023/05/31 00:41:33;;;;;;;4.70;3.10;;;15.00;99.90;;;;;;5054896;28;20207;-54
2023/05/31 00:43:59;;;;;;;2.83;2.40;;;15.10;99.90;;;;;;5062500;28;20557;-53
2023/05/31 00:46:31;;;;;;;5.27;2.87;;;15.00;99.90;;;;;;5049707;28;20244;-53
2023/05/31 00:48:57;;;;;;;3.70;2.67;;;15.00;99.90;;;;;;5052766;28;20580;-55
2023/05/31 00:51:24;;;;;;;3.00;2.50;;;14.90;99.90;;;;;;5051428;28;20474;-52
2023/05/31 00:53:51;;;;;;;4.50;2.80;;;14.90;99.90;;;;;;5046830;28;20512;-52
2023/05/31 00:56:18;;;;;;;5.93;2.57;;;14.90;99.90;;;;;;5047384;28;20524;-53
2023/05/31 00:58:45;;;;;;;3.73;2.87;;;14.90;99.90;;;;;;5054924;28;20466;-53
2023/05/31 01:01:13;;;;;;;3.73;2.67;;;14.80;99.90;;;;;;5047480;28;20985;-55
2023/05/31 01:03:41;;;;;;;2.90;2.60;;;14.80;99.90;;;;;;5049922;28;20447;-56
2023/05/31 01:06:07;;;;;;;5.30;3.17;;;14.70;99.90;;;;;;5047616;28;20474;-54
2023/05/31 01:08:34;;;;;;;4.43;2.90;;;14.70;99.90;;;;;;5047343;28;20444;-54
2023/05/31 01:11:12;;;;;;;5.90;3.23;;;14.70;99.90;;;;;;5050371;28;20443;-55
2023/05/31 01:13:48;;;;;;;4.87;2.77;;;14.70;99.90;;;;;;5047660;28;20508;-52
2023/05/31 01:16:30;;;;;;;4.00;3.13;;;14.60;99.90;;;;;;5056958;28;20482;-52
2023/05/31 01:19:06;;;;;;;3.50;2.80;;;14.60;99.90;;;;;;5051707;28;20471;-51
2023/05/31 01:21:57;;;;;;;3.30;2.40;;;14.60;99.90;;;;;;5044956;28;20467;-52
2023/05/31 01:24:34;;;;;;;2.93;2.63;;;14.60;99.90;;;;;;5045007;28;20565;-56
2023/05/31 01:27:01;;;;;;;3.10;2.73;;;14.60;99.90;;;;;;5050045;28;20804;-55
2023/05/31 01:29:29;;;;;;;7.90;3.07;;;14.50;99.90;;;;;;5047582;28;20447;-52
2023/05/31 01:31:57;;;;;;;3.77;2.80;;;14.40;99.90;;;;;;5056419;28;20510;-56
2023/05/31 01:34:22;;;;;;;3.73;2.93;;;14.40;99.90;;;;;;5055539;28;20523;-54
2023/05/31 01:36:48;;;;;;;6.40;3.73;;;14.30;99.90;;;;;;5048855;28;20482;-54
2023/05/31 01:39:15;;;;;;;4.23;2.60;;;14.30;99.90;;;;;;5048500;28;20184;-54
2023/05/31 01:41:43;;;;;;;4.67;2.83;;;14.20;99.90;;;;;;5045152;28;20197;-54
2023/05/31 01:44:10;;;;;;;3.80;2.40;;;14.30;99.90;;;;;;5045347;28;20449;-51
2023/05/31 01:46:37;;;;;;;3.10;2.50;;;14.30;99.90;;;;;;5057507;28;20782;-54
2023/05/31 01:49:03;;;;;;;3.13;2.80;;;14.20;99.90;;;;;;5050731;28;20450;-54
2023/05/31 01:51:32;;;;;;;3.93;2.97;;;14.20;99.90;;;;;;5044999;28;20455;-55
2023/05/31 01:53:58;;;;;;;3.77;2.33;;;14.20;99.90;;;;;;5051952;28;20493;-53
2023/05/31 01:56:25;;;;;;;5.50;3.00;;;14.10;99.90;;;;;;5044853;28;20454;-54
2023/05/31 01:58:51;;;;;;;4.53;2.67;;;14.10;99.90;;;;;;5050355;28;20731;-52
2023/05/31 02:01:18;;;;;;;4.80;3.17;;;14.00;99.90;;;;;;5040271;28;20546;-56
2023/05/31 02:03:44;;;;;;;3.10;2.33;;;14.10;99.90;;;;;;5047684;28;20447;-53
2023/05/31 02:06:13;;;;;;;4.40;2.70;;;14.10;99.90;;;;;;5049747;28;20451;-54
2023/05/31 02:08:42;;;;;;;4.40;2.97;;;14.10;99.90;;;;;;5050857;28;20187;-53
2023/05/31 02:11:09;;;;;;;3.90;3.17;;;14.00;99.90;;;;;;5047476;28;20502;-55
2023/05/31 02:13:35;;;;;;;4.90;2.80;;;13.90;99.90;;;;;;5053495;28;20773;-56
2023/05/31 02:16:03;;;;;;;2.50;2.30;;;13.90;99.90;;;;;;5045942;28;20437;-55
2023/05/31 02:18:30;;;;;;;6.70;3.40;;;13.90;99.90;;;;;;5039081;28;20215;-55
2023/05/31 02:20:56;;;;;;;8.63;3.20;;;13.90;99.90;;;;;;5053100;28;20457;-56
2023/05/31 02:23:22;;;;;;;5.20;2.93;;;13.80;99.90;;;;;;5050594;28;20458;-53
2023/05/31 02:25:48;;;;;;;5.67;2.90;;;13.70;99.90;;;;;;5052207;28;20176;-54
2023/05/31 02:28:14;;;;;;;7.53;3.00;;;13.60;99.90;;;;;;5045819;28;20447;-53
2023/05/31 02:30:40;;;;;;;3.97;2.87;;;13.60;99.90;;;;;;5047579;28;20562;-52
2023/05/31 02:33:07;;;;;;;4.33;2.93;;;13.60;99.90;;;;;;5047075;28;20788;-55
2023/05/31 02:35:33;;;;;;;3.90;3.00;;;13.60;99.90;;;;;;5045475;28;20552;-53
2023/05/31 02:37:58;;;;;;;4.70;3.10;;;13.50;99.90;;;;;;5048253;28;20473;-53
2023/05/31 02:40:24;;;;;;;5.73;3.00;;;13.50;99.90;;;;;;5056738;28;21508;-54
2023/05/31 02:42:50;;;;;;;5.13;3.30;;;13.50;99.90;;;;;;5051393;28;20513;-52
2023/05/31 02:45:16;;;;;;;3.87;2.90;;;13.40;99.90;;;;;;5052956;28;20443;-53
2023/05/31 02:47:42;;;;;;;5.53;3.30;;;13.40;99.90;;;;;;5050380;28;20189;-56
2023/05/31 02:50:09;;;;;;;3.60;2.90;;;13.30;99.90;;;;;;5044503;28;20200;-55
2023/05/31 02:52:38;;;;;;;4.83;2.93;;;13.20;99.90;;;;;;5049517;28;20189;-53
2023/05/31 02:55:04;;;;;;;3.27;2.73;;;13.20;99.90;;;;;;5045264;28;20932;-52
2023/05/31 02:57:30;;;;;;;4.37;2.70;;;13.30;99.90;;;;;;5045708;28;20957;-55
2023/05/31 02:59:58;;;;;;;3.80;3.00;;;13.30;99.90;;;;;;5046188;28;20486;-54
2023/05/31 03:02:24;;;;;;;4.73;3.23;;;13.30;99.90;;;;;;5044091;28;20223;-53
2023/05/31 03:04:50;;;;;;;5.33;3.27;;;13.30;99.90;;;;;;5049778;28;20443;-53
2023/05/31 03:07:16;;;;;;;6.30;3.20;;;13.20;99.90;;;;;;5051995;28;20192;-52
2023/05/31 03:09:42;;;;;;;3.40;2.67;;;13.20;1.00;;;;;;5046885;28;20831;-54
2023/05/31 03:12:08;;;;;;;3.77;2.90;;;13.20;1.00;;;;;;5047672;28;20447;-54
2023/05/31 03:14:34;;;;;;;5.10;3.00;;;13.30;1.00;;;;;;5047429;28;20212;-55
2023/05/31 03:17:00;;;;;;;3.80;2.37;;;13.30;1.00;;;;;;5050009;28;20932;-54
2023/05/31 03:19:26;;;;;;;4.47;2.90;;;13.40;1.00;;;;;;5044720;28;20443;-56
2023/05/31 03:21:52;;;;;;;4.40;3.00;;;13.30;1.00;;;;;;5044633;28;20480;-53
2023/05/31 03:24:17;;;;;;;4.30;2.93;;;13.30;1.00;;;;;;5044463;28;20184;-55
2023/05/31 03:26:43;;;;;;;20.90;5.73;;;13.30;1.00;;;;;;5044831;28;20251;-52
2023/05/31 03:29:10;;;;;;;5.60;3.97;;;13.40;1.00;;;;;;5045640;28;20253;-54
2023/05/31 03:31:35;;;;;;;5.13;3.10;;;13.50;1.00;;;;;;5048064;28;20443;-54
2023/05/31 03:34:01;;;;;;;7.10;3.27;;;13.70;1.00;;;;;;5046808;28;20500;-55
2023/05/31 03:36:27;;;;;;;3.73;2.57;;;13.80;99.90;;;;;;5054281;28;20712;-56
2023/05/31 03:38:52;;;;;;;5.57;3.27;;;14.00;99.90;;;;;;5051954;28;20194;-53
2023/05/31 03:41:18;;;;;;;5.00;3.30;;;14.20;99.90;;;;;;5044511;28;20275;-53
2023/05/31 03:43:43;;;;;;;3.27;2.67;;;14.40;99.90;;;;;;5054348;28;20246;-55
2023/05/31 03:46:09;;;;;;;3.13;2.43;;;14.30;99.90;;;;;;5045192;28;20542;-57
2023/05/31 03:48:35;;;;;;;5.93;3.10;;;14.20;99.90;;;;;;5036803;28;20242;-54
2023/05/31 03:51:00;;;;;;;4.37;3.03;;;14.00;99.90;;;;;;5040803;28;20188;-53
2023/05/31 03:53:26;;;;;;;4.03;3.10;;;13.80;99.90;;;;;;5046850;28;20535;-54
2023/05/31 03:55:52;;;;;;;3.63;3.13;;;13.80;99.90;;;;;;5042260;28;20204;-55
2023/05/31 03:58:18;;;;;;;5.90;3.27;;;13.70;99.90;;;;;;5051122;28;20243;-55
2023/05/31 04:00:44;;;;;;;5.00;3.23;;;13.70;99.90;;;;;;5046198;28;20382;-52
2023/05/31 04:03:13;;;;;;;4.10;3.07;;;13.60;99.90;;;;;;5047591;28;20561;-54
2023/05/31 04:05:40;;;;;;;7.23;3.57;;;13.50;99.90;;;;;;5049119;28;20447;-53
2023/05/31 04:08:05;;;;;;;5.43;2.83;;;13.60;99.90;;;;;;5049804;28;20448;-55
2023/05/31 04:10:32;;;;;;;4.70;3.30;;;13.60;99.90;;;;;;5043141;28;20531;-53
2023/05/31 04:12:58;;;;;;;3.13;2.83;;;13.50;99.90;;;;;;5053365;28;20526;-53
2023/05/31 04:15:24;;;;;;;4.40;3.03;;;13.60;99.90;;;;;;5047353;28;20525;-52
2023/05/31 04:17:50;;;;;;;4.93;3.27;;;13.60;99.90;;;;;;5052000;28;20565;-55
2023/05/31 04:20:19;;;;;;;5.00;3.20;;;13.60;99.90;;;;;;5053644;28;20447;-54
2023/05/31 04:22:45;;;;;;;6.30;3.40;;;13.60;99.90;;;;;;5054802;28;20550;-53
2023/05/31 04:25:12;;;;;;;6.83;3.57;;;13.70;99.90;;;;;;5056786;28;20442;-55
2023/05/31 04:27:40;;;;;;;5.13;3.77;;;13.70;99.90;;;;;;5050296;28;20200;-52
2023/05/31 04:30:08;;;;;;;6.37;2.93;;;13.80;99.90;;;;;;5045914;28;20537;-53
2023/05/31 04:32:34;;;;;;;4.07;3.07;;;13.90;99.90;;;;;;5042216;28;20450;-54
2023/05/31 04:35:04;;;;;;;6.53;3.50;;;14.00;99.90;;;;;;5048733;28;20472;-52
2023/05/31 04:37:30;;;;;;;3.53;2.67;;;14.10;99.90;;;;;;5045106;28;20443;-55
2023/05/31 04:39:57;;;;;;;5.17;3.57;;;14.10;99.90;;;;;;5051795;28;20442;-53
2023/05/31 04:42:26;;;;;;;4.47;3.07;;;14.10;99.90;;;;;;5050234;28;20621;-52
2023/05/31 04:44:57;;;;;;;5.37;3.70;;;14.20;99.90;;;;;;5049086;28;20474;-55
2023/05/31 04:47:24;;;;;;;4.70;3.43;;;14.20;99.90;;;;;;5046500;28;20516;-54
2023/05/31 04:49:50;;;;;;;9.27;3.70;;;14.30;99.90;;;;;;5057095;28;20442;-54
2023/05/31 04:52:17;;;;;;;7.83;3.30;;;14.30;99.90;;;;;;5047586;28;20446;-53
2023/05/31 04:54:42;;;;;;;4.20;3.13;;;14.50;99.90;;;;;;5044487;28;20451;-54
2023/05/31 04:57:08;;;;;;;5.43;3.40;;;14.50;99.90;;;;;;5051136;28;20516;-55
2023/05/31 04:59:34;;;;;;;10.60;3.40;;;14.60;99.90;;;;;;5052790;28;20228;-55
2023/05/31 05:02:00;;;;;;;7.40;3.50;;;14.50;99.90;;;;;;5043727;28;20681;-56
2023/05/31 05:04:26;;;;;;;5.63;3.13;;;14.60;99.90;;;;;;5043655;28;20866;-52
2023/05/31 05:06:51;;;;;;;4.17;3.17;;;14.60;99.90;;;;;;5053304;28;20195;-54
2023/05/31 05:09:17;;;;;;;5.10;3.93;;;14.70;99.90;;;;;;5050773;28;20692;-54
2023/05/31 05:11:42;;;;;;;3.80;2.67;;;14.80;99.90;;;;;;5050628;28;20188;-54
2023/05/31 05:14:09;;;;;;;16.67;10.73;;;14.80;99.90;;;;;;5049421;28;20200;-54
2023/05/31 05:16:35;;;;;;;8.13;3.67;;;15.00;99.90;;;;;;5058355;28;20200;-51
2023/05/31 05:19:00;;;;;;;6.40;3.43;;;15.20;99.90;;;;;;5043366;28;20450;-55
2023/05/31 05:21:26;;;;;;;8.03;3.50;;;15.20;99.90;;;;;;5049072;28;20207;-53
2023/05/31 05:23:52;;;;;;;4.90;3.57;;;15.20;99.90;;;;;;5050890;28;20267;-55
2023/05/31 05:26:17;;;;;;;4.90;3.50;;;15.40;99.90;;;;;;5061349;28;20200;-53
2023/05/31 05:28:43;;;;;;;7.33;3.87;;;15.50;99.90;;;;;;5039982;28;20193;-55
2023/05/31 05:31:08;;;;;;;6.17;4.03;;;15.50;99.90;;;;;;5041861;28;20220;-56
2023/05/31 05:33:35;;;;;;;4.73;3.53;;;15.70;99.90;;;;;;5046011;28;20700;-52
2023/05/31 05:36:02;;;;;;;3.80;3.40;;;15.80;99.90;;;;;;5043813;28;20184;-53
2023/05/31 05:38:27;;;;;;;8.00;3.77;;;15.70;99.90;;;;;;5048465;28;20599;-55
2023/05/31 05:40:53;;;;;;;4.67;3.33;;;15.90;99.90;;;;;;5053888;28;20458;-53
2023/05/31 05:43:18;;;;;;;6.03;3.50;;;16.10;99.90;;;;;;5046477;28;20211;-53
2023/05/31 05:45:44;;;;;;;5.33;3.73;;;16.00;99.90;;;;;;5053191;28;20192;-52
2023/05/31 05:48:10;;;;;;;3.90;3.00;;;16.10;99.90;;;;;;5039175;28;20254;-55
2023/05/31 05:50:35;;;;;;;5.00;3.30;;;16.20;99.90;;;;;;5046064;28;20189;-53
2023/05/31 05:53:01;;;;;;;5.93;4.03;;;16.40;99.90;;;;;;5052715;28;20231;-54
2023/05/31 05:55:26;;;;;;;4.30;3.23;;;16.50;99.90;;;;;;5043679;28;20193;-52
2023/05/31 05:57:52;;;;;;;8.37;4.07;;;16.60;99.90;;;;;;5047435;28;20680;-54
2023/05/31 06:00:18;;;;;;;6.30;3.77;;;16.70;99.90;;;;;;5043834;28;20207;-53
2023/05/31 06:02:44;;;;;;;7.70;4.00;;;16.80;99.90;;;;;;5042550;28;20301;-53
2023/05/31 06:05:10;;;;;;;5.00;3.70;;;16.90;99.90;;;;;;5049521;28;21047;-53
2023/05/31 06:07:35;;;;;;;4.43;3.70;;;16.90;99.90;;;;;;5045400;28;20234;-53
2023/05/31 06:10:02;;;;;;;5.20;3.33;;;17.00;99.90;;;;;;5050740;28;20231;-55
2023/05/31 06:12:29;;;;;;;7.33;3.40;;;17.10;99.90;;;;;;5043236;28;20453;-52
2023/05/31 06:14:55;;;;;;;5.67;3.70;;;17.20;99.90;;;;;;5043710;28;20755;-55
2023/05/31 06:17:20;;;;;;;7.37;3.97;;;17.20;99.90;;;;;;5046618;28;20440;-52
2023/05/31 06:19:46;;;;;;;8.00;3.50;;;17.30;99.90;;;;;;5044359;28;20205;-54
2023/05/31 06:22:12;;;;;;;7.60;4.00;;;17.40;99.90;;;;;;5036414;28;20205;-54
2023/05/31 06:24:37;;;;;;;10.17;3.77;;;17.50;99.90;;;;;;5050253;28;20202;-54
2023/05/31 06:27:05;;;;;;;5.10;3.60;;;17.60;99.90;;;;;;5048153;28;20272;-53
2023/05/31 06:29:30;;;;;;;6.67;3.87;;;17.70;99.90;;;;;;5044918;28;20244;-53
2023/05/31 06:31:56;;;;;;;6.73;3.70;;;17.80;99.90;;;;;;5048061;28;20452;-53
2023/05/31 06:34:21;;;;;;;4.90;3.30;;;18.00;99.90;;;;;;5052363;28;20204;-55
2023/05/31 06:36:47;;;;;;;6.03;3.67;;;18.10;99.90;;;;;;5047438;28;20528;-53
2023/05/31 06:39:13;;;;;;;6.83;3.90;;;18.10;99.90;;;;;;5044410;28;20177;-53
2023/05/31 06:41:38;;;;;;;6.57;3.80;;;18.30;99.90;;;;;;5052911;28;20189;-53
2023/05/31 06:44:04;;;;;;;7.20;3.60;;;18.60;99.90;;;;;;5039682;28;20963;-54
2023/05/31 06:46:30;;;;;;;4.97;3.20;;;18.60;99.90;;;;;;5047048;28;20185;-54
2023/05/31 06:48:55;;;;;;;6.57;4.23;;;18.80;99.90;;;;;;5042087;28;20190;-55
2023/05/31 06:51:22;;;;;;;6.60;3.77;;;18.90;99.90;;;;;;5050333;28;20553;-53
2023/05/31 06:53:49;;;;;;;4.83;3.53;;;19.00;99.90;;;;;;5052020;28;20638;-53
2023/05/31 06:56:15;;;;;;;5.67;3.50;;;19.10;99.90;;;;;;5052692;28;20533;-54
2023/05/31 06:58:42;;;;;;;5.27;3.17;;;19.20;99.90;;;;;;5049223;28;20619;-54
2023/05/31 07:01:07;;;;;;;10.27;4.47;;;19.30;99.90;;;;;;5040987;28;20190;-53
2023/05/31 07:03:33;;;;;;;7.43;3.60;;;19.40;99.90;;;;;;5046559;28;20973;-54
2023/05/31 07:06:00;;;;;;;5.73;3.23;;;19.50;99.90;;;;;;5042880;28;20203;-54
2023/05/31 07:08:26;;;;;;;6.53;3.90;;;19.70;99.90;;;;;;5044826;28;20499;-53
2023/05/31 07:10:51;;;;;;;7.67;4.03;;;19.80;99.90;;;;;;5052012;28;20493;-54
2023/05/31 07:13:17;;;;;;;9.80;4.43;;;20.00;99.90;;;;;;5048271;28;20210;-53
2023/05/31 07:15:43;;;;;;;4.93;3.33;;;20.10;99.90;;;;;;5037180;28;20279;-53
2023/05/31 07:18:08;;;;;;;8.43;5.10;;;20.40;99.90;;;;;;5033234;28;20281;-54
2023/05/31 07:20:34;;;;;;;7.83;4.03;;;20.70;99.90;;;;;;5044240;28;20457;-53
2023/05/31 07:23:00;;;;;;;4.13;3.30;;;21.00;99.90;;;;;;5049789;28;22388;-54
2023/05/31 07:25:25;;;;;;;6.73;3.43;;;21.00;99.90;;;;;;5043601;28;20222;-53
2023/05/31 07:27:51;;;;;;;7.27;4.30;;;21.00;99.90;;;;;;5044969;28;20226;-54
2023/05/31 07:30:16;;;;;;;6.17;3.63;;;21.40;99.90;;;;;;5042522;28;20190;-53
2023/05/31 07:32:42;;;;;;;4.17;3.10;;;21.30;99.90;;;;;;5040045;28;20202;-54
2023/05/31 07:35:08;;;;;;;6.17;3.03;;;21.40;99.90;;;;;;5050718;28;20183;-55
2023/05/31 07:37:34;;;;;;;4.70;3.30;;;21.40;99.90;;;;;;5045350;28;20190;-54
2023/05/31 07:39:59;;;;;;;5.53;3.50;;;21.50;99.90;;;;;;5048289;28;20463;-54
2023/05/31 07:42:26;;;;;;;3.63;3.17;;;21.50;99.90;;;;;;5045107;28;20481;-53
2023/05/31 07:44:53;;;;;;;7.07;3.50;;;21.60;99.90;;;;;;5044889;28;20187;-52
2023/05/31 07:47:20;;;;;;;11.80;3.23;;;21.70;99.90;;;;;;5042002;28;20453;-54
2023/05/31 07:49:45;;;;;;;4.43;3.07;;;21.80;99.90;;;;;;5047301;28;20530;-53
2023/05/31 07:52:11;;;;;;;4.60;2.70;;;21.90;99.90;;;;;;5040900;28;20545;-54
2023/05/31 07:54:37;;;;;;;4.93;3.30;;;22.10;99.90;;;;;;5045648;28;20549;-52
2023/05/31 07:57:03;;;;;;;3.93;3.17;;;22.40;99.90;;;;;;5044858;28;20190;-53
2023/05/31 07:59:29;;;;;;;4.20;2.50;;;22.70;99.90;;;;;;5045376;28;20225;-53
2023/05/31 08:01:54;;;;;;;6.00;2.87;;;22.90;99.90;;;;;;5041274;28;20821;-54
2023/05/31 08:04:20;;;;;;;5.73;2.80;;;22.80;99.90;;;;;;5042488;28;21753;-53
2023/05/31 08:06:46;;;;;;;4.67;3.23;;;22.80;99.90;;;;;;5044408;28;20183;-53
2023/05/31 08:09:11;;;;;;;5.00;3.03;;;22.90;99.90;;;;;;5039629;28;20230;-54
2023/05/31 08:11:37;;;;;;;5.00;2.30;;;23.10;99.90;;;;;;5049520;28;20187;-53
2023/05/31 08:14:04;;;;;;;4.80;2.87;;;23.10;99.90;;;;;;5048269;28;20539;-53
2023/05/31 08:16:30;;;;;;;4.97;2.50;;;23.20;99.90;;;;;;5045348;28;20185;-54
2023/05/31 08:18:56;;;;;;;3.30;2.60;;;23.30;99.90;;;;;;5044148;28;20471;-53
2023/05/31 08:21:22;;;;;;;5.50;3.20;;;23.50;99.90;;;;;;5040259;28;20446;-53
2023/05/31 08:23:48;;;;;;;4.00;2.57;;;23.50;99.90;;;;;;5045628;28;20213;-54
2023/05/31 08:26:13;;;;;;;9.97;3.17;;;23.50;99.90;;;;;;5044553;28;20451;-53
2023/05/31 08:28:40;;;;;;;5.93;2.63;;;23.40;99.90;;;;;;5043628;28;20306;-54
2023/05/31 08:31:06;;;;;;;6.30;3.00;;;23.30;99.90;;;;;;5046977;28;20186;-54
2023/05/31 08:33:32;;;;;;;5.07;2.40;;;23.60;99.90;;;;;;5041284;28;20455;-53
2023/05/31 08:36:04;;;;;;;3.97;2.33;;;23.90;99.90;;;;;;5042661;28;20817;-54
2023/05/31 08:38:30;;;;;;;6.40;2.47;;;24.00;99.90;;;;;;5046993;28;20209;-53
2023/05/31 08:41:02;;;;;;;6.00;2.57;;;24.30;99.90;;;;;;5044530;28;20977;-53
2023/05/31 08:43:28;;;;;;;5.30;2.40;;;24.30;99.90;;;;;;5044228;28;20466;-53
2023/05/31 08:45:55;;;;;;;4.57;2.00;;;24.10;99.90;;;;;;5059237;28;21024;-54
2023/05/31 08:48:29;;;;;;;4.60;2.30;;;24.10;99.90;;;;;;5044662;28;20449;-53
2023/05/31 08:50:58;;;;;;;4.87;2.10;;;24.30;99.90;;;;;;5050103;28;20881;-54
2023/05/31 08:53:27;;;;;;;4.70;2.40;;;24.50;99.90;;;;;;5052957;28;20580;-54
2023/05/31 08:55:53;;;;;;;3.73;1.93;;;24.70;99.90;;;;;;5050515;28;20973;-52
2023/05/31 08:58:20;;;;;;;2.77;2.43;;;24.70;99.90;;;;;;5052535;28;21428;-53
2023/05/31 09:00:46;;;;;;;5.27;2.30;;;24.70;99.90;;;;;;5044237;28;20511;-55
2023/05/31 09:03:12;;;;;;;4.27;2.30;;;24.80;99.90;;;;;;5053218;28;20465;-53
2023/05/31 09:05:38;;;;;;;4.57;2.00;;;24.50;99.90;;;;;;5045604;28;20461;-52
2023/05/31 09:08:05;;;;;;;4.97;2.17;;;24.50;99.90;;;;;;5052568;28;20798;-52
2023/05/31 09:10:30;;;;;;;3.40;2.00;;;24.60;99.90;;;;;;5057764;28;20174;-53
2023/05/31 09:12:57;;;;;;;9.53;2.37;;;24.90;99.90;;;;;;5050345;28;20532;-55
2023/05/31 09:15:24;;;;;;;4.53;2.60;;;24.70;99.90;;;;;;5048752;28;20197;-54
2023/05/31 09:17:50;;;;;;;4.07;2.30;;;24.70;99.90;;;;;;5050087;28;20794;-55
2023/05/31 09:20:17;;;;;;;3.97;2.40;;;24.70;99.90;;;;;;5051168;28;20444;-55
2023/05/31 09:22:47;;;;;;;3.00;2.00;;;24.90;99.90;;;;;;5056841;28;20502;-54
2023/05/31 09:25:13;;;;;;;4.53;2.37;;;25.00;99.90;;;;;;5049612;28;20472;-52
2023/05/31 09:27:39;;;;;;;4.27;2.30;;;25.00;99.90;;;;;;5048800;28;20901;-53
2023/05/31 09:30:13;;;;;;;3.97;2.00;;;25.20;99.90;;;;;;5049522;28;20317;-54
2023/05/31 09:32:39;;;;;;;4.93;2.30;;;25.30;99.90;;;;;;5055389;28;20455;-52
2023/05/31 09:35:14;;;;;;;4.03;2.20;;;25.40;99.90;;;;;;5057150;28;20455;-52
2023/05/31 09:37:49;;;;;;;2.30;2.00;;;25.50;99.90;;;;;;5046295;28;20846;-53
2023/05/31 09:40:29;;;;;;;4.03;2.00;;;25.60;99.90;;;;;;5049764;28;20497;-53
2023/05/31 09:42:55;;;;;;;4.50;2.57;;;25.70;99.90;;;;;;5051120;28;20469;-53
2023/05/31 09:45:22;;;;;;;4.30;1.90;;;25.70;99.90;;;;;;5055008;28;20450;-53
2023/05/31 09:47:48;;;;;;;3.40;1.90;;;25.90;99.90;;;;;;5043816;28;20191;-53
2023/05/31 09:50:19;;;;;;;3.47;1.87;;;26.20;99.90;;;;;;5051375;28;20438;-55
2023/05/31 09:52:47;;;;;;;3.10;1.50;;;26.20;99.90;;;;;;5049297;28;20461;-54
2023/05/31 09:55:15;;;;;;;6.17;2.03;;;25.50;99.90;;;;;;5053680;28;20449;-53
2023/05/31 09:57:43;;;;;;;5.60;2.03;;;25.10;99.90;;;;;;5045061;28;20514;-52
2023/05/31 10:00:17;;;;;;;3.90;2.20;;;25.10;99.90;;;;;;5036859;28;20834;-55
2023/05/31 10:02:53;;;;;;;5.73;2.10;;;25.10;99.90;;;;;;5053343;28;20520;-53
2023/05/31 10:05:20;;;;;;;6.50;2.37;;;25.40;99.90;;;;;;5049607;28;20897;-55
2023/05/31 10:07:48;;;;;;;3.90;2.10;;;25.50;99.90;;;;;;5048456;28;20511;-54
2023/05/31 10:10:14;;;;;;;15.17;2.87;;;25.60;99.90;;;;;;5042792;28;20446;-54
2023/05/31 10:12:57;;;;;;;6.17;1.93;;;25.90;99.90;;;;;;5039383;28;20973;-54
2023/05/31 10:15:26;;;;;;;2.97;1.67;;;25.90;99.90;;;;;;5043579;28;20546;-53
2023/05/31 10:18:01;;;;;;;2.10;1.50;;;25.60;99.90;;;;;;5043892;28;20473;-52
2023/05/31 10:20:48;;;;;;;2.83;1.53;;;25.20;99.90;;;;;;5049413;28;20529;-54
2023/05/31 10:23:24;;;;;;;3.00;1.67;;;25.10;99.90;;;;;;5046191;28;20505;-54
2023/05/31 10:26:13;;;;;;;5.97;2.50;;;25.20;99.90;;;;;;5045376;28;20459;-52
2023/05/31 10:29:14;;;;;;;3.43;2.00;;;25.50;99.90;;;;;;5047949;28;20439;-52
2023/05/31 10:31:50;;;;;;;5.40;2.07;;;25.80;99.90;;;;;;5048114;28;20873;-54
2023/05/31 10:34:22;;;;;;;4.03;1.80;;;26.20;99.90;;;;;;5046121;28;20800;-53
2023/05/31 10:36:51;;;;;;;2.73;1.73;;;26.40;99.90;;;;;;5048985;28;20444;-53
2023/05/31 10:39:30;;;;;;;6.07;2.23;;;26.00;99.90;;;;;;5039218;28;20450;-55
2023/05/31 10:42:25;;;;;;;2.73;1.37;;;25.40;99.90;;;;;;5045320;28;20468;-53
2023/05/31 10:45:03;;;;;;;4.23;2.10;;;25.20;99.90;;;;;;5035635;28;20446;-56
2023/05/31 10:47:37;;;;;;;8.07;2.03;;;25.20;99.90;;;;;;5056613;28;20446;-51
2023/05/31 10:50:04;;;;;;;3.70;1.67;;;25.30;99.90;;;;;;5044519;28;20500;-53
2023/05/31 10:52:33;;;;;;;3.50;1.77;;;25.60;99.90;;;;;;5045767;28;20456;-53
2023/05/31 10:55:18;;;;;;;9.40;2.37;;;25.80;99.90;;;;;;5045509;28;20444;-53
2023/05/31 10:57:49;;;;;;;5.60;1.90;;;26.20;99.90;;;;;;5047398;28;20461;-55
2023/05/31 11:00:19;;;;;;;2.97;1.90;;;26.30;99.90;;;;;;5046350;28;20486;-53
2023/05/31 11:02:48;;;;;;;6.20;1.80;;;26.10;99.90;;;;;;5053132;28;20488;-54
2023/05/31 11:05:25;;;;;;;5.53;2.03;;;26.00;99.90;;;;;;5046775;28;20992;-54
2023/05/31 11:07:52;;;;;;;3.87;2.00;;;25.80;99.90;;;;;;5046159;28;20434;-52
2023/05/31 11:10:25;;;;;;;5.73;1.70;;;25.70;99.90;;;;;;5044842;28;20461;-52
2023/05/31 11:12:51;;;;;;;3.20;2.03;;;25.60;99.90;;;;;;5044616;28;20450;-56
2023/05/31 11:15:16;;;;;;;3.17;2.13;;;25.30;99.90;;;;;;5044441;28;20464;-55
2023/05/31 11:17:53;;;;;;;5.27;2.30;;;25.10;99.90;;;;;;5042722;28;20660;-54
2023/05/31 11:20:20;;;;;;;3.20;1.80;;;25.30;99.90;;;;;;5046897;28;20191;-55
2023/05/31 11:22:46;;;;;;;3.67;1.77;;;25.10;99.90;;;;;;5047336;28;20465;-55
2023/05/31 11:25:22;;;;;;;3.80;2.17;;;25.20;99.90;;;;;;5046533;28;20475;-55
2023/05/31 11:27:49;;;;;;;3.33;2.23;;;24.90;99.90;;;;;;5052992;28;21945;-54
2023/05/31 11:30:15;;;;;;;6.60;2.50;;;25.00;99.90;;;;;;5046128;28;20444;-51
2023/05/31 11:32:42;;;;;;;3.37;2.00;;;25.40;99.90;;;;;;5050464;28;20446;-53
2023/05/31 11:35:11;;;;;;;5.20;2.40;;;25.40;99.90;;;;;;5048689;28;20563;-53
2023/05/31 11:37:38;;;;;;;3.97;1.90;;;25.20;99.90;;;;;;5042194;28;20453;-56
2023/05/31 11:40:11;;;;;;;3.23;2.10;;;24.80;99.90;;;;;;5047251;28;20455;-51
2023/05/31 11:42:38;;;;;;;5.07;2.43;;;25.00;99.90;;;;;;5049493;28;20604;-53
2023/05/31 11:45:17;;;;;;;3.10;1.80;;;25.40;99.90;;;;;;5046155;28;20523;-53
2023/05/31 11:48:04;;;;;;;3.67;1.83;;;25.60;99.90;;;;;;5051365;28;20456;-55
2023/05/31 11:50:31;;;;;;;3.63;2.43;;;25.60;99.90;;;;;;5052251;28;20450;-53
2023/05/31 11:52:59;;;;;;;3.03;2.27;;;25.80;99.90;;;;;;5046556;28;20436;-51
2023/05/31 11:55:32;;;;;;;4.30;2.03;;;25.80;99.90;;;;;;5047676;28;20440;-53
2023/05/31 11:57:59;;;;;;;3.10;2.07;;;25.70;99.90;;;;;;5049810;28;20444;-54
2023/05/31 12:00:24;;;;;;;3.90;1.97;;;25.80;99.90;;;;;;5049357;28;20854;-53
2023/05/31 12:02:58;;;;;;;3.57;2.00;;;25.90;99.90;;;;;;5054276;28;20481;-53
2023/05/31 12:05:24;;;;;;;3.00;2.07;;;26.00;99.90;;;;;;5045973;28;20192;-55
2023/05/31 12:07:55;;;;;;;6.10;2.30;;;26.00;99.90;;;;;;5045237;28;20468;-56
2023/05/31 12:10:25;;;;;;;5.37;2.27;;;26.10;99.90;;;;;;5045416;28;20478;-53
2023/05/31 12:12:50;;;;;;;4.30;2.20;;;26.30;99.90;;;;;;5044833;28;20540;-54
2023/05/31 12:15:16;;;;;;;4.20;2.30;;;26.40;99.90;;;;;;5047800;28;20877;-55
2023/05/31 12:17:42;;;;;;;3.37;2.20;;;26.30;99.90;;;;;;5048428;28;20222;-54
2023/05/31 12:20:09;;;;;;;2.40;2.03;;;26.10;99.90;;;;;;5046554;28;20486;-55
2023/05/31 12:22:35;;;;;;;3.73;2.20;;;26.00;99.90;;;;;;5047182;28;20207;-54
2023/05/31 12:25:01;;;;;;;9.00;4.87;;;26.20;99.90;;;;;;5047579;28;20557;-54
2023/05/31 12:27:29;;;;;;;5.83;2.30;;;26.10;99.90;;;;;;5046232;28;20449;-54
2023/05/31 12:30:01;;;;;;;2.80;2.10;;;26.00;99.90;;;;;;5047076;28;20808;-53
2023/05/31 12:32:28;;;;;;;2.90;2.00;;;25.90;99.90;;;;;;5050732;28;20461;-53
2023/05/31 12:35:08;;;;;;;3.00;1.77;;;26.10;99.90;;;;;;5048404;28;20978;-54
2023/05/31 12:37:35;;;;;;;3.90;2.10;;;26.40;99.90;;;;;;5053436;28;20460;-53
2023/05/31 12:40:15;;;;;;;2.30;1.77;;;26.50;99.90;;;;;;5060292;28;20502;-53
2023/05/31 12:42:42;;;;;;;2.27;2.03;;;26.70;99.90;;;;;;5050353;28;20547;-54
2023/05/31 12:45:09;;;;;;;3.10;2.00;;;26.90;99.90;;;;;;5049816;28;20718;-56
2023/05/31 12:47:36;;;;;;;2.73;2.43;;;26.80;99.90;;;;;;5044962;28;20446;-53
2023/05/31 12:50:06;;;;;;;2.20;2.00;;;26.70;99.90;;;;;;5052195;28;20792;-53